createdAt,value
2019-02-21T00:01:01.883Z,12.80
2019-02-21T00:03:32.797Z,10.93
2019-02-21T00:06:02.156Z,11.73
2019-02-21T00:08:32.027Z,11.70
2019-02-21T00:11:02.939Z,11.97
2019-02-21T00:13:32.298Z,12.30
2019-02-21T00:16:01.690Z,12.33
2019-02-21T00:18:31.045Z,11.73
2019-02-21T00:21:00.439Z,12.13
2019-02-21T00:23:29.815Z,12.40
2019-02-21T00:25:59.194Z,12.20
2019-02-21T00:28:28.572Z,12.70
2019-02-21T00:30:58.299Z,11.03
2019-02-21T00:33:28.812Z,12.27
2019-02-21T00:35:59.154Z,12.17
2019-02-21T00:38:28.550Z,11.83
2019-02-21T00:40:57.920Z,12.20
2019-02-21T00:43:28.847Z,9.87
2019-02-21T00:45:58.224Z,12.27
2019-02-21T00:48:28.232Z,13.03
2019-02-21T00:50:57.599Z,11.97
2019-02-21T00:53:27.022Z,10.37
2019-02-21T00:55:56.405Z,10.23
2019-02-21T00:58:25.763Z,13.23
2019-02-21T01:00:56.733Z,13.20
2019-02-21T01:03:26.104Z,12.73
2019-02-21T01:05:55.732Z,12.57
2019-02-21T01:08:25.129Z,12.63
2019-02-21T01:10:54.505Z,13.17
2019-02-21T01:13:23.871Z,11.07
2019-02-21T01:15:53.928Z,11.93
2019-02-21T01:18:23.492Z,13.13
2019-02-21T01:20:52.884Z,11.70
2019-02-21T01:23:22.285Z,11.43
2019-02-21T01:25:51.691Z,11.50
2019-02-21T01:28:21.872Z,13.57
2019-02-21T01:30:57.054Z,13.90
2019-02-21T01:33:22.365Z,11.50
2019-02-21T01:35:51.753Z,10.83
2019-02-21T01:38:23.247Z,8.60
2019-02-21T01:40:52.687Z,12.85
2019-02-21T01:43:22.055Z,12.73
2019-02-21T01:45:51.448Z,10.03
2019-02-21T01:48:20.828Z,12.70
2019-02-21T01:50:50.211Z,11.83
2019-02-21T02:14:23.749Z,10.77
2019-02-21T02:16:53.139Z,11.63
2019-02-21T02:19:22.521Z,11.90
2019-02-21T02:21:51.921Z,13.33
2019-02-21T02:24:21.318Z,12.10
2019-02-21T02:26:50.686Z,11.67
2019-02-21T02:29:20.077Z,13.50
2019-02-21T02:31:49.459Z,11.43
2019-02-21T02:34:19.404Z,12.73
2019-02-21T02:36:49.828Z,10.63
2019-02-21T02:39:19.221Z,12.30
2019-02-21T02:41:48.592Z,8.87
2019-02-21T02:44:18.011Z,12.50
2019-02-21T02:46:47.384Z,11.97
2019-02-21T02:49:16.805Z,11.23
2019-02-21T02:51:46.148Z,13.17
2019-02-21T02:54:15.553Z,13.57
2019-02-21T02:56:44.933Z,11.13
2019-02-21T02:59:15.200Z,11.30
2019-02-21T03:01:46.000Z,13.47
2019-02-21T03:04:17.698Z,12.40
2019-02-21T03:06:47.118Z,10.50
2019-02-21T03:09:16.500Z,13.00
2019-02-21T03:11:47.000Z,14.63
2019-02-21T03:14:16.422Z,14.50
2019-02-21T03:16:46.062Z,11.48
2019-02-21T03:19:15.465Z,11.53
2019-02-21T03:21:44.863Z,12.83
2019-02-21T03:24:14.224Z,14.13
2019-02-21T03:26:43.624Z,13.00
2019-02-21T03:29:13.035Z,13.07
2019-02-21T03:31:54.584Z,11.97
2019-02-21T03:34:14.091Z,14.07
2019-02-21T03:36:44.007Z,12.83
2019-02-21T03:39:15.013Z,13.80
2019-02-21T03:41:45.374Z,13.07
2019-02-21T03:44:14.782Z,13.80
2019-02-21T03:46:48.440Z,11.43
2019-02-21T03:49:17.838Z,13.43
2019-02-21T03:51:47.274Z,13.30
2019-02-21T03:54:16.647Z,13.97
2019-02-21T03:56:46.019Z,14.10
2019-02-21T03:59:16.983Z,13.60
2019-02-21T04:01:46.363Z,13.10
2019-02-21T04:04:15.730Z,15.50
2019-02-21T04:06:45.188Z,13.07
2019-02-21T04:09:14.566Z,14.20
2019-02-21T04:11:44.024Z,12.87
2019-02-21T04:14:13.891Z,14.23
2019-02-21T04:16:43.266Z,13.30
2019-02-21T04:19:14.928Z,13.33
2019-02-21T04:21:45.942Z,13.87
2019-02-21T04:24:15.339Z,13.30
2019-02-21T04:26:45.718Z,13.15
2019-02-21T04:29:15.772Z,15.03
2019-02-21T04:31:45.141Z,13.93
2019-02-21T04:34:14.510Z,13.83
2019-02-21T04:36:43.910Z,13.40
2019-02-21T04:39:13.277Z,12.60
2019-02-21T04:41:42.660Z,11.80
2019-02-21T04:44:12.066Z,14.23
2019-02-21T04:46:47.359Z,13.23
2019-02-21T04:49:17.854Z,13.43
2019-02-21T04:51:47.684Z,13.10
2019-02-21T04:54:17.291Z,13.87
2019-02-21T04:56:46.676Z,13.05
2019-02-21T04:59:16.061Z,13.83
2019-02-21T05:01:45.455Z,13.27
2019-02-21T05:04:14.814Z,14.13
2019-02-21T05:06:44.206Z,12.40
2019-02-21T05:09:14.241Z,12.63
2019-02-21T05:11:45.144Z,13.28
2019-02-21T05:14:16.217Z,12.10
2019-02-21T05:16:46.146Z,13.60
2019-02-21T05:19:16.549Z,13.70
2019-02-21T05:21:46.621Z,14.03
2019-02-21T05:24:15.982Z,13.43
2019-02-21T05:26:46.992Z,13.80
2019-02-21T05:29:16.373Z,13.20
2019-02-21T05:32:03.668Z,15.25
2019-02-21T05:34:39.338Z,12.27
2019-02-21T05:37:28.413Z,13.65
2019-02-21T05:40:16.007Z,13.23
2019-02-21T05:42:46.978Z,13.63
2019-02-21T05:45:23.773Z,13.03
2019-02-21T05:48:11.989Z,13.00
2019-02-21T05:51:02.797Z,13.27
2019-02-21T05:53:38.485Z,13.57
2019-02-21T05:56:27.728Z,14.37
2019-02-21T05:59:01.678Z,13.50
2019-02-21T06:01:49.322Z,12.73
2019-02-21T06:04:20.367Z,14.50
2019-02-21T06:07:09.830Z,13.25
2019-02-21T06:09:44.183Z,13.20
2019-02-21T06:12:32.793Z,11.53
2019-02-21T06:15:09.904Z,12.13
2019-02-21T06:17:43.638Z,13.70
2019-02-21T06:20:17.861Z,14.53
2019-02-21T06:22:51.780Z,14.20
2019-02-21T06:25:24.049Z,12.10
2019-02-21T06:28:01.850Z,13.43
2019-02-21T06:30:35.841Z,14.10
2019-02-21T06:33:05.636Z,14.73
2019-02-21T06:35:35.056Z,12.43
2019-02-21T06:38:05.710Z,13.00
2019-02-21T06:40:36.726Z,14.57
2019-02-21T06:43:06.091Z,11.80
2019-02-21T06:45:36.089Z,13.17
2019-02-21T06:48:05.524Z,14.77
2019-02-21T06:50:36.516Z,15.40
2019-02-21T06:53:06.935Z,12.93
2019-02-21T06:55:36.307Z,12.90
2019-02-21T06:58:05.735Z,13.47
2019-02-21T07:00:35.156Z,15.27
2019-02-21T07:03:15.115Z,14.00
2019-02-21T07:05:36.942Z,14.57
2019-02-21T07:08:08.761Z,15.70
2019-02-21T07:10:37.715Z,13.67
2019-02-21T07:13:07.065Z,14.70
2019-02-21T07:15:36.807Z,15.63
2019-02-21T07:18:06.170Z,12.57
2019-02-21T07:20:35.541Z,12.97
2019-02-21T07:23:04.930Z,15.07
2019-02-21T07:25:43.456Z,14.13
2019-02-21T07:28:15.970Z,13.13
2019-02-21T07:30:45.297Z,13.10
2019-02-21T07:33:14.674Z,14.00
2019-02-21T07:35:44.056Z,14.20
2019-02-21T07:38:17.082Z,15.20
2019-02-21T07:40:45.721Z,18.37
2019-02-21T07:43:15.767Z,18.03
2019-02-21T07:45:45.144Z,18.30
2019-02-21T07:48:14.496Z,18.37
2019-02-21T07:50:43.897Z,19.53
2019-02-21T07:53:13.272Z,17.90
2019-02-21T07:55:42.627Z,16.93
2019-02-21T07:58:12.016Z,17.93
2019-02-21T08:00:41.398Z,16.07
2019-02-21T08:03:11.424Z,17.37
2019-02-21T08:05:41.787Z,18.37
2019-02-21T08:08:11.920Z,21.37
2019-02-21T08:10:41.357Z,29.53
2019-02-21T08:13:10.749Z,22.93
2019-02-21T08:15:40.118Z,19.37
2019-02-21T08:18:09.494Z,21.60
2019-02-21T08:20:41.024Z,22.93
2019-02-21T08:23:11.051Z,20.37
2019-02-21T08:25:40.540Z,19.23
2019-02-21T08:28:10.108Z,16.40
2019-02-21T08:30:40.594Z,18.97
2019-02-21T08:33:11.621Z,20.27
2019-02-21T08:35:41.030Z,21.10
2019-02-21T08:38:12.126Z,20.67
2019-02-21T08:40:41.672Z,21.52
2019-02-21T08:43:13.321Z,21.00
2019-02-21T08:45:42.734Z,21.33
2019-02-21T08:48:13.533Z,21.47
2019-02-21T08:50:42.960Z,22.27
2019-02-21T08:53:13.089Z,20.47
2019-02-21T08:55:42.571Z,22.47
2019-02-21T08:58:11.961Z,23.80
2019-02-21T09:00:42.373Z,23.40
2019-02-21T09:03:12.315Z,25.83
2019-02-21T09:05:42.364Z,21.75
2019-02-21T09:08:11.738Z,24.60
2019-02-21T09:10:41.786Z,21.70
2019-02-21T09:13:12.917Z,23.50
2019-02-21T09:15:42.290Z,22.30
2019-02-21T09:18:11.648Z,23.10
2019-02-21T09:20:44.124Z,24.03
2019-02-21T09:23:15.942Z,22.83
2019-02-21T09:25:44.758Z,22.50
2019-02-21T09:28:15.831Z,22.40
2019-02-21T09:30:45.448Z,23.30
2019-02-21T09:33:21.326Z,22.83
2019-02-21T09:35:51.181Z,20.75
2019-02-21T09:38:20.607Z,22.57
2019-02-21T09:40:50.825Z,22.30
2019-02-21T09:43:25.328Z,23.33
2019-02-21T09:45:54.702Z,22.93
2019-02-21T09:48:24.061Z,22.37
2019-02-21T09:50:53.492Z,20.37
2019-02-21T09:53:22.911Z,21.40
2019-02-21T09:55:53.895Z,22.67
2019-02-21T09:58:24.985Z,21.93
2019-02-21T10:00:54.457Z,20.13
2019-02-21T10:03:27.638Z,21.43
2019-02-21T10:05:57.051Z,22.87
2019-02-21T10:08:26.414Z,21.80
2019-02-21T10:10:55.843Z,21.13
2019-02-21T10:13:25.228Z,20.63
2019-02-21T10:15:55.160Z,22.05
2019-02-21T10:18:24.535Z,26.63
2019-02-21T10:20:53.936Z,32.13
2019-02-21T10:23:24.350Z,38.57
2019-02-21T10:25:53.870Z,63.57
2019-02-21T10:28:23.846Z,80.43
2019-02-21T10:30:53.222Z,59.83
2019-02-21T10:33:25.179Z,47.50
2019-02-21T10:35:54.733Z,38.33
2019-02-21T10:38:24.790Z,26.10
2019-02-21T10:40:54.159Z,25.23
2019-02-21T10:43:23.535Z,24.50
2019-02-21T10:45:52.923Z,24.60
2019-02-21T10:48:22.293Z,23.53
2019-02-21T10:50:52.366Z,24.23
2019-02-21T10:53:21.754Z,24.10
2019-02-21T10:55:51.139Z,25.37
2019-02-21T10:58:20.535Z,24.73
2019-02-21T11:00:49.917Z,24.93
2019-02-21T11:03:19.306Z,25.03
2019-02-21T11:05:48.683Z,24.53
2019-02-21T11:08:18.081Z,23.03
2019-02-21T11:10:47.472Z,24.10
2019-02-21T11:13:16.976Z,23.67
2019-02-21T11:15:46.337Z,23.93
2019-02-21T11:18:15.718Z,22.87
2019-02-21T11:20:45.124Z,24.43
2019-02-21T11:23:14.491Z,23.50
2019-02-21T11:25:43.862Z,22.93
2019-02-21T11:28:13.266Z,25.60
2019-02-21T11:30:42.668Z,23.42
2019-02-21T11:33:12.085Z,22.47
2019-02-21T11:35:41.912Z,23.90
2019-02-21T11:38:14.776Z,25.40
2019-02-21T11:40:44.142Z,23.43
2019-02-21T11:43:13.556Z,24.07
2019-02-21T11:45:53.210Z,23.80
2019-02-21T11:48:14.120Z,25.60
2019-02-21T11:50:43.626Z,24.47
2019-02-21T11:53:13.008Z,24.83
2019-02-21T11:55:42.384Z,26.90
2019-02-21T11:58:11.770Z,26.40
2019-02-21T12:00:41.373Z,25.00
2019-02-21T12:03:10.735Z,26.87
2019-02-21T12:05:40.155Z,26.33
2019-02-21T12:08:09.526Z,25.67
2019-02-21T12:10:38.916Z,26.63
2019-02-21T12:13:08.738Z,26.07
2019-02-21T12:15:38.110Z,26.40
2019-02-21T12:18:07.466Z,25.60
2019-02-21T12:20:37.012Z,25.77
2019-02-21T12:23:06.403Z,25.70
2019-02-21T12:25:35.791Z,25.57
2019-02-21T12:28:05.184Z,25.07
2019-02-21T12:30:34.565Z,26.55
2019-02-21T12:33:03.968Z,26.60
2019-02-21T12:35:33.818Z,25.93
2019-02-21T12:38:03.195Z,27.00
2019-02-21T12:40:33.617Z,28.10
2019-02-21T12:43:02.996Z,28.50
2019-02-21T12:45:32.371Z,27.80
2019-02-21T12:48:01.749Z,24.90
2019-02-21T12:50:31.171Z,26.70
2019-02-21T12:53:00.554Z,26.23
2019-02-21T12:55:31.811Z,25.00
2019-02-21T12:58:01.112Z,26.73
2019-02-21T13:00:30.539Z,26.83
2019-02-21T13:02:59.949Z,26.73
2019-02-21T13:05:40.107Z,26.90
2019-02-21T13:08:00.460Z,25.60
2019-02-21T13:10:29.830Z,27.57
2019-02-21T13:12:59.222Z,28.00
2019-02-21T13:15:28.676Z,28.40
2019-02-21T13:17:58.037Z,27.90
2019-02-21T13:20:27.823Z,29.17
2019-02-21T13:22:57.232Z,27.17
2019-02-21T13:25:26.588Z,29.33
2019-02-21T13:27:55.981Z,29.43
2019-02-21T13:30:25.353Z,31.03
2019-02-21T13:32:54.729Z,30.40
2019-02-21T13:35:52.075Z,30.40
2019-02-21T13:38:14.992Z,33.00
2019-02-21T13:40:44.390Z,32.20
2019-02-21T13:43:14.469Z,32.30
2019-02-21T13:45:43.828Z,31.20
2019-02-21T13:48:13.194Z,32.33
2019-02-21T13:50:42.598Z,31.83
2019-02-21T13:53:11.962Z,33.00
2019-02-21T13:55:41.340Z,31.73
2019-02-21T13:58:11.196Z,31.93
2019-02-21T14:00:40.571Z,32.93
2019-02-21T14:03:09.966Z,31.70
2019-02-21T14:05:39.372Z,30.90
2019-02-21T14:08:08.743Z,30.83
2019-02-21T14:10:38.103Z,31.33
2019-02-21T14:13:07.535Z,30.53
2019-02-21T14:15:36.920Z,30.93
2019-02-21T14:18:06.293Z,30.60
2019-02-21T14:20:44.994Z,29.67
2019-02-21T14:23:07.480Z,31.50
2019-02-21T14:25:40.658Z,30.37
2019-02-21T14:28:07.985Z,31.10
2019-02-21T14:30:37.360Z,31.50
2019-02-21T14:33:06.721Z,29.67
2019-02-21T14:35:36.119Z,27.43
2019-02-21T14:38:05.490Z,30.00
2019-02-21T14:40:34.856Z,29.30
2019-02-21T14:43:04.328Z,29.80
2019-02-21T14:45:35.070Z,29.47
2019-02-21T14:48:04.448Z,30.10
2019-02-21T14:50:35.886Z,28.50
2019-02-21T14:53:04.942Z,28.63
2019-02-21T14:55:34.331Z,27.53
2019-02-21T14:58:03.775Z,27.67
2019-02-21T15:00:33.208Z,26.97
2019-02-21T15:03:02.572Z,26.70
2019-02-21T15:05:32.033Z,26.63
2019-02-21T15:08:01.414Z,24.57
2019-02-21T15:10:30.849Z,25.07
2019-02-21T15:13:00.258Z,23.57
2019-02-21T15:15:29.670Z,21.90
2019-02-21T15:18:06.972Z,22.07
2019-02-21T15:20:36.720Z,21.03
2019-02-21T15:23:01.240Z,22.67
2019-02-21T15:25:30.604Z,19.87
2019-02-21T15:28:00.385Z,19.93
2019-02-21T15:30:29.755Z,19.50
2019-02-21T15:32:59.130Z,18.90
2019-02-21T15:35:28.551Z,21.33
2019-02-21T15:38:00.438Z,20.40
2019-02-21T15:40:29.041Z,20.23
2019-02-21T15:42:58.433Z,19.63
2019-02-21T15:45:31.484Z,18.97
2019-02-21T15:48:01.144Z,18.70
2019-02-21T15:50:30.968Z,17.93
2019-02-21T15:53:00.348Z,16.10
2019-02-21T15:55:32.042Z,15.63
2019-02-21T15:58:04.335Z,15.57
2019-02-21T16:00:32.042Z,16.33
2019-02-21T16:03:01.428Z,15.27
2019-02-21T16:05:30.853Z,16.43
2019-02-21T16:08:00.294Z,16.00
2019-02-21T16:10:29.696Z,14.47
2019-02-21T16:12:59.920Z,14.57
2019-02-21T16:15:30.659Z,14.45
2019-02-21T16:18:00.043Z,15.07
2019-02-21T16:20:29.564Z,19.40
2019-02-21T16:22:58.981Z,15.23
2019-02-21T16:25:49.205Z,14.80
2019-02-21T16:28:18.581Z,14.43
2019-02-21T16:30:48.040Z,14.83
2019-02-21T16:33:18.189Z,14.93
2019-02-21T16:35:47.544Z,18.03
2019-02-21T16:38:16.925Z,24.77
2019-02-21T16:40:46.312Z,17.07
2019-02-21T16:43:15.675Z,15.70
2019-02-21T16:45:47.172Z,14.53
2019-02-21T16:48:16.162Z,15.47
2019-02-21T16:50:48.544Z,16.52
2019-02-21T16:53:18.095Z,15.97
2019-02-21T16:55:47.501Z,15.20
2019-02-21T16:58:16.872Z,16.07
2019-02-21T17:00:53.299Z,16.37
2019-02-21T17:03:17.351Z,14.87
2019-02-21T17:05:46.720Z,15.27
2019-02-21T17:08:16.092Z,15.13
2019-02-21T17:10:45.495Z,14.90
2019-02-21T17:13:14.860Z,12.53
2019-02-21T17:15:44.239Z,13.20
2019-02-21T17:18:13.693Z,13.03
2019-02-21T17:20:43.153Z,13.93
2019-02-21T17:23:22.298Z,11.63
2019-02-21T17:25:43.648Z,12.63
2019-02-21T17:28:14.884Z,13.33
2019-02-21T17:30:44.256Z,15.07
2019-02-21T17:33:13.639Z,13.13
2019-02-21T17:35:43.025Z,13.67
2019-02-21T17:38:14.392Z,12.37
2019-02-21T17:40:43.594Z,13.98
2019-02-21T17:43:12.995Z,13.10
2019-02-21T17:45:42.378Z,13.43
2019-02-21T17:48:11.774Z,13.03
2019-02-21T17:50:41.156Z,13.07
2019-02-21T17:53:12.069Z,16.20
2019-02-21T17:55:41.466Z,16.23
2019-02-21T17:58:10.826Z,17.03
2019-02-21T18:00:40.712Z,15.90
2019-02-21T18:03:10.081Z,14.93
2019-02-21T18:05:39.461Z,23.20
2019-02-21T18:08:08.843Z,26.67
2019-02-21T18:10:38.259Z,28.83
2019-02-21T18:13:07.596Z,23.63
2019-02-21T18:15:36.977Z,23.70
2019-02-21T18:18:06.374Z,22.87
2019-02-21T18:20:35.746Z,22.67
2019-02-21T18:23:05.193Z,27.30
2019-02-21T18:25:48.115Z,20.87
2019-02-21T18:28:17.499Z,19.50
2019-02-21T18:30:47.004Z,22.77
2019-02-21T18:33:16.396Z,23.53
2019-02-21T18:35:45.917Z,23.22
2019-02-21T18:38:17.275Z,24.10
2019-02-21T18:40:46.661Z,22.40
2019-02-21T18:43:16.044Z,22.43
2019-02-21T18:45:45.424Z,24.03
2019-02-21T18:48:15.938Z,24.37
2019-02-21T18:50:45.550Z,22.87
2019-02-21T18:53:14.921Z,25.17
2019-02-21T18:55:45.935Z,25.10
2019-02-21T18:58:15.572Z,24.00
2019-02-21T19:00:44.965Z,25.37
2019-02-21T19:03:14.367Z,30.73
2019-02-21T19:05:43.751Z,27.63
2019-02-21T19:08:13.134Z,25.77
2019-02-21T19:10:43.020Z,23.23
2019-02-21T19:13:12.388Z,25.03
2019-02-21T19:15:41.766Z,25.67
2019-02-21T19:18:14.132Z,25.97
2019-02-21T19:20:43.522Z,26.13
2019-02-21T19:23:12.896Z,25.57
2019-02-21T19:25:42.304Z,25.40
2019-02-21T19:28:11.682Z,27.33
2019-02-21T19:30:48.996Z,26.17
2019-02-21T19:33:18.724Z,26.93
2019-02-21T19:35:48.679Z,26.13
2019-02-21T19:38:18.140Z,26.83
2019-02-21T19:40:47.602Z,25.37
2019-02-21T19:43:16.976Z,25.80
2019-02-21T19:45:46.351Z,25.90
2019-02-21T19:48:15.739Z,27.23
2019-02-21T19:50:45.184Z,26.90
2019-02-21T19:53:14.664Z,25.63
2019-02-21T19:55:44.504Z,27.37
2019-02-21T19:58:14.573Z,27.23
2019-02-21T20:00:44.085Z,27.80
2019-02-21T20:03:13.484Z,27.83
2019-02-21T20:05:43.121Z,29.73
2019-02-21T20:08:20.991Z,29.23
2019-02-21T20:10:44.366Z,27.80
2019-02-21T20:13:14.407Z,30.03
2019-02-21T20:15:44.112Z,29.33
2019-02-21T20:18:13.768Z,27.37
2019-02-21T20:20:43.197Z,29.80
2019-02-21T20:23:12.577Z,28.93
2019-02-21T20:25:41.978Z,28.10
2019-02-21T20:28:11.408Z,28.00
2019-02-21T20:30:40.859Z,28.33
2019-02-21T20:33:10.239Z,29.93
2019-02-21T20:35:39.711Z,28.32
2019-02-21T20:38:09.069Z,28.67
2019-02-21T20:40:38.562Z,27.13
2019-02-21T20:43:07.929Z,27.27
2019-02-21T20:45:37.390Z,27.47
2019-02-21T20:48:06.776Z,25.93
2019-02-21T20:50:36.163Z,27.87
2019-02-21T20:53:05.603Z,27.40
2019-02-21T20:55:43.420Z,27.20
2019-02-21T20:58:06.095Z,27.10
2019-02-21T21:00:36.696Z,29.87
2019-02-21T21:03:07.170Z,28.87
2019-02-21T21:05:36.535Z,28.97
2019-02-21T21:08:05.942Z,27.37
2019-02-21T21:10:35.336Z,27.47
2019-02-21T21:13:04.710Z,28.53
2019-02-21T21:15:34.090Z,29.03
2019-02-21T21:18:03.466Z,28.40
2019-02-21T21:20:32.833Z,28.37
2019-02-21T21:23:02.201Z,29.67
2019-02-21T21:25:32.061Z,30.20
2019-02-21T21:28:01.423Z,29.83
2019-02-21T21:30:30.810Z,30.17
2019-02-21T21:33:00.196Z,29.13
2019-02-21T21:35:29.658Z,31.23
2019-02-21T21:37:59.024Z,29.93
2019-02-21T21:40:28.410Z,29.40
2019-02-21T21:42:57.779Z,30.40
2019-02-21T21:45:27.151Z,29.10
2019-02-21T21:47:57.387Z,29.97
2019-02-21T21:50:26.866Z,28.97
2019-02-21T21:52:56.247Z,31.17
2019-02-21T21:55:25.693Z,30.30
2019-02-21T21:57:55.080Z,31.53
2019-02-21T22:00:25.017Z,31.63
2019-02-21T22:02:55.928Z,33.20
2019-02-21T22:05:25.314Z,32.63
2019-02-21T22:07:54.695Z,31.40
2019-02-21T22:10:24.105Z,31.97
2019-02-21T22:12:53.466Z,31.60
2019-02-21T22:15:24.950Z,34.17
2019-02-21T22:17:54.455Z,33.70
2019-02-21T22:20:23.801Z,33.33
2019-02-21T22:22:53.165Z,32.57
2019-02-21T22:25:22.577Z,32.73
2019-02-21T22:27:51.951Z,35.83
2019-02-21T22:30:21.905Z,33.20
2019-02-21T22:32:51.374Z,34.37
2019-02-21T22:35:20.736Z,31.13
2019-02-21T22:37:50.107Z,35.17
2019-02-21T22:40:21.017Z,33.47
2019-02-21T22:42:50.395Z,34.27
2019-02-21T22:45:19.862Z,33.10
2019-02-21T22:47:49.252Z,29.80
2019-02-21T22:50:19.986Z,34.73
2019-02-21T22:52:49.349Z,32.73
2019-02-21T22:55:19.139Z,32.80
2019-02-21T22:57:48.511Z,33.77
2019-02-21T23:00:54.340Z,33.13
2019-02-21T23:03:27.996Z,33.03
2019-02-21T23:06:26.190Z,34.23
2019-02-21T23:08:55.826Z,35.83
2019-02-21T23:11:25.278Z,33.30
2019-02-21T23:13:55.318Z,34.17
2019-02-21T23:16:24.752Z,33.98
2019-02-21T23:18:54.203Z,33.43
2019-02-21T23:21:25.117Z,34.13
2019-02-21T23:23:54.492Z,32.67
2019-02-21T23:26:24.104Z,33.20
2019-02-21T23:28:53.500Z,31.30
2019-02-21T23:31:23.525Z,31.30
2019-02-21T23:33:57.227Z,30.60
2019-02-21T23:36:27.295Z,36.93
2019-02-21T23:38:56.665Z,31.67
2019-02-21T23:41:26.047Z,32.73
2019-02-21T23:43:55.438Z,31.90
2019-02-21T23:46:24.827Z,30.20
2019-02-21T23:48:54.202Z,30.87
2019-02-21T23:51:23.594Z,29.23
2019-02-21T23:54:02.813Z,30.53
2019-02-21T23:56:24.061Z,27.93
2019-02-21T23:58:54.245Z,28.33
